sensor_id;sensor_type;location;lat;lon;timestamp;P1;durP1;ratioP1;P2;durP2;ratioP2
31694;SDS011;18289;51.330;4.946;2024-02-26T00:02:17;5.93;;;2.30;;
31694;SDS011;18289;51.330;4.946;2024-02-26T00:04:43;5.63;;;2.25;;
31694;SDS011;18289;51.330;4.946;2024-02-26T00:07:09;3.17;;;2.30;;
31694;SDS011;18289;51.330;4.946;2024-02-26T00:09:35;4.38;;;2.25;;
31694;SDS011;18289;51.330;4.946;2024-02-26T00:12:02;2.65;;;2.28;;
31694;SDS011;18289;51.330;4.946;2024-02-26T00:14:31;3.13;;;2.55;;
31694;SDS011;18289;51.330;4.946;2024-02-26T00:16:57;4.38;;;2.28;;
31694;SDS011;18289;51.330;4.946;2024-02-26T00:19:23;2.80;;;2.30;;
31694;SDS011;18289;51.330;4.946;2024-02-26T00:21:48;2.95;;;2.15;;
31694;SDS011;18289;51.330;4.946;2024-02-26T00:24:14;4.15;;;2.33;;
31694;SDS011;18289;51.330;4.946;2024-02-26T00:26:40;3.85;;;2.33;;
31694;SDS011;18289;51.330;4.946;2024-02-26T00:29:05;4.50;;;2.63;;
31694;SDS011;18289;51.330;4.946;2024-02-26T00:31:31;5.13;;;2.45;;
31694;SDS011;18289;51.330;4.946;2024-02-26T00:33:57;2.88;;;2.40;;
31694;SDS011;18289;51.330;4.946;2024-02-26T00:36:22;3.67;;;2.30;;
31694;SDS011;18289;51.330;4.946;2024-02-26T00:38:48;4.22;;;2.45;;
31694;SDS011;18289;51.330;4.946;2024-02-26T00:41:17;6.60;;;3.47;;
31694;SDS011;18289;51.330;4.946;2024-02-26T00:43:44;3.83;;;2.75;;
31694;SDS011;18289;51.330;4.946;2024-02-26T00:46:09;2.65;;;2.45;;
31694;SDS011;18289;51.330;4.946;2024-02-26T00:48:35;3.55;;;2.60;;
31694;SDS011;18289;51.330;4.946;2024-02-26T00:51:02;3.42;;;2.53;;
31694;SDS011;18289;51.330;4.946;2024-02-26T00:53:30;2.50;;;2.30;;
31694;SDS011;18289;51.330;4.946;2024-02-26T00:55:56;3.72;;;2.55;;
31694;SDS011;18289;51.330;4.946;2024-02-26T00:58:24;2.75;;;2.55;;
31694;SDS011;18289;51.330;4.946;2024-02-26T01:00:50;2.63;;;2.40;;
31694;SDS011;18289;51.330;4.946;2024-02-26T01:03:15;4.38;;;2.35;;
31694;SDS011;18289;51.330;4.946;2024-02-26T01:05:44;3.63;;;2.50;;
31694;SDS011;18289;51.330;4.946;2024-02-26T01:08:12;3.78;;;2.45;;
31694;SDS011;18289;51.330;4.946;2024-02-26T01:10:37;4.72;;;2.30;;
31694;SDS011;18289;51.330;4.946;2024-02-26T01:13:03;3.22;;;2.38;;
31694;SDS011;18289;51.330;4.946;2024-02-26T01:15:29;2.60;;;2.40;;
31694;SDS011;18289;51.330;4.946;2024-02-26T01:17:54;2.95;;;2.40;;
31694;SDS011;18289;51.330;4.946;2024-02-26T01:20:20;3.90;;;2.45;;
31694;SDS011;18289;51.330;4.946;2024-02-26T01:22:46;3.70;;;2.70;;
31694;SDS011;18289;51.330;4.946;2024-02-26T01:25:12;4.05;;;2.63;;
31694;SDS011;18289;51.330;4.946;2024-02-26T01:27:40;4.70;;;2.60;;
31694;SDS011;18289;51.330;4.946;2024-02-26T01:30:07;3.33;;;2.50;;
31694;SDS011;18289;51.330;4.946;2024-02-26T01:32:34;3.50;;;2.60;;
31694;SDS011;18289;51.330;4.946;2024-02-26T01:35:01;3.00;;;2.58;;
31694;SDS011;18289;51.330;4.946;2024-02-26T01:37:28;2.90;;;2.40;;
31694;SDS011;18289;51.330;4.946;2024-02-26T01:39:55;3.63;;;2.47;;
31694;SDS011;18289;51.330;4.946;2024-02-26T01:42:20;3.47;;;2.60;;
31694;SDS011;18289;51.330;4.946;2024-02-26T01:44:46;3.10;;;2.63;;
31694;SDS011;18289;51.330;4.946;2024-02-26T01:47:12;3.67;;;2.80;;
31694;SDS011;18289;51.330;4.946;2024-02-26T01:49:38;3.92;;;2.40;;
31694;SDS011;18289;51.330;4.946;2024-02-26T01:54:34;3.15;;;2.80;;
31694;SDS011;18289;51.330;4.946;2024-02-26T01:57:01;5.78;;;3.25;;
31694;SDS011;18289;51.330;4.946;2024-02-26T01:59:28;4.85;;;2.90;;
31694;SDS011;18289;51.330;4.946;2024-02-26T02:01:55;6.78;;;3.33;;
31694;SDS011;18289;51.330;4.946;2024-02-26T02:04:23;3.72;;;3.13;;
31694;SDS011;18289;51.330;4.946;2024-02-26T02:06:49;4.75;;;3.70;;
31694;SDS011;18289;51.330;4.946;2024-02-26T02:09:17;3.92;;;3.42;;
31694;SDS011;18289;51.330;4.946;2024-02-26T02:11:43;3.90;;;3.30;;
31694;SDS011;18289;51.330;4.946;2024-02-26T02:16:37;6.80;;;3.80;;
31694;SDS011;18289;51.330;4.946;2024-02-26T02:19:03;6.82;;;4.05;;
31694;SDS011;18289;51.330;4.946;2024-02-26T02:21:28;6.93;;;4.32;;
31694;SDS011;18289;51.330;4.946;2024-02-26T02:23:54;7.22;;;4.70;;
31694;SDS011;18289;51.330;4.946;2024-02-26T02:26:20;6.82;;;4.30;;
31694;SDS011;18289;51.330;4.946;2024-02-26T02:28:46;6.10;;;4.57;;
31694;SDS011;18289;51.330;4.946;2024-02-26T02:31:13;7.97;;;4.70;;
31694;SDS011;18289;51.330;4.946;2024-02-26T02:33:39;6.28;;;5.00;;
31694;SDS011;18289;51.330;4.946;2024-02-26T02:36:05;6.45;;;4.82;;
31694;SDS011;18289;51.330;4.946;2024-02-26T02:38:34;7.47;;;4.70;;
31694;SDS011;18289;51.330;4.946;2024-02-26T02:41:03;5.60;;;4.78;;
31694;SDS011;18289;51.330;4.946;2024-02-26T02:43:29;6.13;;;4.72;;
31694;SDS011;18289;51.330;4.946;2024-02-26T02:45:55;5.53;;;4.60;;
31694;SDS011;18289;51.330;4.946;2024-02-26T02:48:21;5.90;;;4.93;;
31694;SDS011;18289;51.330;4.946;2024-02-26T02:50:46;5.07;;;4.50;;
31694;SDS011;18289;51.330;4.946;2024-02-26T02:53:12;7.35;;;4.80;;
31694;SDS011;18289;51.330;4.946;2024-02-26T02:55:38;6.97;;;4.78;;
31694;SDS011;18289;51.330;4.946;2024-02-26T02:58:04;7.90;;;5.18;;
31694;SDS011;18289;51.330;4.946;2024-02-26T03:00:29;7.10;;;5.10;;
31694;SDS011;18289;51.330;4.946;2024-02-26T03:02:55;7.28;;;5.07;;
31694;SDS011;18289;51.330;4.946;2024-02-26T03:05:21;4.80;;;4.40;;
31694;SDS011;18289;51.330;4.946;2024-02-26T03:07:47;6.18;;;4.53;;
31694;SDS011;18289;51.330;4.946;2024-02-26T03:10:12;5.20;;;4.68;;
31694;SDS011;18289;51.330;4.946;2024-02-26T03:12:38;4.65;;;4.25;;
31694;SDS011;18289;51.330;4.946;2024-02-26T03:15:04;5.40;;;4.90;;
31694;SDS011;18289;51.330;4.946;2024-02-26T03:17:30;7.20;;;5.15;;
31694;SDS011;18289;51.330;4.946;2024-02-26T03:19:56;4.97;;;4.45;;
31694;SDS011;18289;51.330;4.946;2024-02-26T03:22:22;5.53;;;4.43;;
31694;SDS011;18289;51.330;4.946;2024-02-26T03:24:49;5.10;;;4.60;;
31694;SDS011;18289;51.330;4.946;2024-02-26T03:27:14;5.10;;;4.38;;
31694;SDS011;18289;51.330;4.946;2024-02-26T03:29:40;5.28;;;4.70;;
31694;SDS011;18289;51.330;4.946;2024-02-26T03:32:06;6.20;;;4.20;;
31694;SDS011;18289;51.330;4.946;2024-02-26T03:34:32;5.90;;;4.85;;
31694;SDS011;18289;51.330;4.946;2024-02-26T03:37:01;4.90;;;4.40;;
31694;SDS011;18289;51.330;4.946;2024-02-26T03:39:26;5.95;;;4.35;;
31694;SDS011;18289;51.330;4.946;2024-02-26T03:41:52;6.90;;;4.70;;
31694;SDS011;18289;51.330;4.946;2024-02-26T03:44:18;6.38;;;4.82;;
31694;SDS011;18289;51.330;4.946;2024-02-26T03:46:43;5.90;;;4.13;;
31694;SDS011;18289;51.330;4.946;2024-02-26T03:49:09;5.10;;;4.03;;
31694;SDS011;18289;51.330;4.946;2024-02-26T03:51:35;5.10;;;4.60;;
31694;SDS011;18289;51.330;4.946;2024-02-26T03:54:01;5.93;;;4.50;;
31694;SDS011;18289;51.330;4.946;2024-02-26T03:56:26;5.53;;;4.57;;
31694;SDS011;18289;51.330;4.946;2024-02-26T03:58:53;8.98;;;5.05;;
31694;SDS011;18289;51.330;4.946;2024-02-26T04:01:19;4.45;;;3.97;;
31694;SDS011;18289;51.330;4.946;2024-02-26T04:03:45;5.20;;;4.22;;
31694;SDS011;18289;51.330;4.946;2024-02-26T04:06:11;7.20;;;4.50;;
31694;SDS011;18289;51.330;4.946;2024-02-26T04:08:39;4.82;;;4.40;;
31694;SDS011;18289;51.330;4.946;2024-02-26T04:11:05;5.97;;;4.10;;
31694;SDS011;18289;51.330;4.946;2024-02-26T04:13:34;5.65;;;4.50;;
31694;SDS011;18289;51.330;4.946;2024-02-26T04:16:04;7.30;;;4.75;;
31694;SDS011;18289;51.330;4.946;2024-02-26T04:18:58;5.32;;;4.20;;
31694;SDS011;18289;51.330;4.946;2024-02-26T04:21:24;5.78;;;4.80;;
31694;SDS011;18289;51.330;4.946;2024-02-26T04:23:50;4.45;;;3.85;;
31694;SDS011;18289;51.330;4.946;2024-02-26T04:26:16;5.45;;;4.30;;
31694;SDS011;18289;51.330;4.946;2024-02-26T04:28:41;6.55;;;4.43;;
31694;SDS011;18289;51.330;4.946;2024-02-26T04:31:07;5.75;;;4.32;;
31694;SDS011;18289;51.330;4.946;2024-02-26T04:33:36;5.05;;;4.15;;
31694;SDS011;18289;51.330;4.946;2024-02-26T04:36:02;6.05;;;4.65;;
31694;SDS011;18289;51.330;4.946;2024-02-26T04:38:28;4.35;;;3.95;;
31694;SDS011;18289;51.330;4.946;2024-02-26T04:40:53;6.13;;;4.57;;
31694;SDS011;18289;51.330;4.946;2024-02-26T04:43:19;4.35;;;3.95;;
31694;SDS011;18289;51.330;4.946;2024-02-26T04:45:45;4.57;;;4.10;;
31694;SDS011;18289;51.330;4.946;2024-02-26T04:48:10;4.95;;;4.15;;
31694;SDS011;18289;51.330;4.946;2024-02-26T04:50:36;4.35;;;3.95;;
31694;SDS011;18289;51.330;4.946;2024-02-26T04:53:02;6.03;;;4.55;;
31694;SDS011;18289;51.330;4.946;2024-02-26T04:55:28;5.18;;;4.20;;
31694;SDS011;18289;51.330;4.946;2024-02-26T04:57:53;4.75;;;4.10;;
31694;SDS011;18289;51.330;4.946;2024-02-26T05:00:19;4.25;;;3.85;;
31694;SDS011;18289;51.330;4.946;2024-02-26T05:02:45;5.25;;;4.40;;
31694;SDS011;18289;51.330;4.946;2024-02-26T05:05:11;4.50;;;4.10;;
31694;SDS011;18289;51.330;4.946;2024-02-26T05:07:40;4.50;;;4.10;;
31694;SDS011;18289;51.330;4.946;2024-02-26T05:12:33;4.25;;;3.85;;
31694;SDS011;18289;51.330;4.946;2024-02-26T05:15:00;4.55;;;3.92;;
31694;SDS011;18289;51.330;4.946;2024-02-26T05:17:27;4.30;;;3.90;;
31694;SDS011;18289;51.330;4.946;2024-02-26T05:19:53;4.70;;;3.85;;
31694;SDS011;18289;51.330;4.946;2024-02-26T05:22:18;4.60;;;3.63;;
31694;SDS011;18289;51.330;4.946;2024-02-26T05:24:44;4.47;;;3.78;;
31694;SDS011;18289;51.330;4.946;2024-02-26T05:27:10;4.25;;;3.85;;
31694;SDS011;18289;51.330;4.946;2024-02-26T05:29:37;4.32;;;3.78;;
31694;SDS011;18289;51.330;4.946;2024-02-26T05:32:03;3.90;;;3.50;;
31694;SDS011;18289;51.330;4.946;2024-02-26T05:34:29;4.85;;;3.72;;
31694;SDS011;18289;51.330;4.946;2024-02-26T05:36:55;3.60;;;3.30;;
31694;SDS011;18289;51.330;4.946;2024-02-26T05:39:21;4.90;;;3.90;;
31694;SDS011;18289;51.330;4.946;2024-02-26T05:41:47;4.72;;;3.58;;
31694;SDS011;18289;51.330;4.946;2024-02-26T05:44:14;4.15;;;3.75;;
31694;SDS011;18289;51.330;4.946;2024-02-26T05:46:41;3.97;;;3.55;;
31694;SDS011;18289;51.330;4.946;2024-02-26T05:49:07;5.47;;;4.00;;
31694;SDS011;18289;51.330;4.946;2024-02-26T05:51:33;4.60;;;4.20;;
31694;SDS011;18289;51.330;4.946;2024-02-26T05:53:58;4.32;;;3.80;;
31694;SDS011;18289;51.330;4.946;2024-02-26T05:56:24;5.50;;;3.83;;
31694;SDS011;18289;51.330;4.946;2024-02-26T05:58:50;4.30;;;3.90;;
31694;SDS011;18289;51.330;4.946;2024-02-26T06:01:16;3.60;;;3.30;;
31694;SDS011;18289;51.330;4.946;2024-02-26T06:03:42;4.57;;;3.90;;
31694;SDS011;18289;51.330;4.946;2024-02-26T06:06:09;5.25;;;3.58;;
31694;SDS011;18289;51.330;4.946;2024-02-26T06:08:40;4.03;;;3.60;;
31694;SDS011;18289;51.330;4.946;2024-02-26T06:11:06;4.68;;;4.20;;
31694;SDS011;18289;51.330;4.946;2024-02-26T06:13:32;5.22;;;3.85;;
31694;SDS011;18289;51.330;4.946;2024-02-26T06:15:59;4.20;;;3.83;;
31694;SDS011;18289;51.330;4.946;2024-02-26T06:18:24;4.75;;;3.78;;
31694;SDS011;18289;51.330;4.946;2024-02-26T06:20:50;4.22;;;3.70;;
31694;SDS011;18289;51.330;4.946;2024-02-26T06:23:16;4.22;;;3.78;;
31694;SDS011;18289;51.330;4.946;2024-02-26T06:25:41;4.35;;;3.65;;
31694;SDS011;18289;51.330;4.946;2024-02-26T06:28:10;3.80;;;3.40;;
31694;SDS011;18289;51.330;4.946;2024-02-26T06:30:36;4.13;;;3.72;;
31694;SDS011;18289;51.330;4.946;2024-02-26T06:33:02;4.00;;;3.60;;
31694;SDS011;18289;51.330;4.946;2024-02-26T06:35:28;4.72;;;4.20;;
31694;SDS011;18289;51.330;4.946;2024-02-26T06:37:53;4.07;;;3.67;;
31694;SDS011;18289;51.330;4.946;2024-02-26T06:40:19;4.18;;;3.78;;
31694;SDS011;18289;51.330;4.946;2024-02-26T06:42:45;4.72;;;4.30;;
31694;SDS011;18289;51.330;4.946;2024-02-26T06:45:11;5.88;;;3.78;;
31694;SDS011;18289;51.330;4.946;2024-02-26T06:47:37;5.18;;;4.45;;
31694;SDS011;18289;51.330;4.946;2024-02-26T06:52:30;6.72;;;3.95;;
31694;SDS011;18289;51.330;4.946;2024-02-26T06:54:56;4.95;;;4.45;;
31694;SDS011;18289;51.330;4.946;2024-02-26T06:57:22;5.63;;;4.40;;
31694;SDS011;18289;51.330;4.946;2024-02-26T06:59:48;5.40;;;4.55;;
31694;SDS011;18289;51.330;4.946;2024-02-26T07:02:14;5.07;;;4.15;;
31694;SDS011;18289;51.330;4.946;2024-02-26T07:04:41;5.40;;;4.30;;
31694;SDS011;18289;51.330;4.946;2024-02-26T07:07:07;5.32;;;4.78;;
31694;SDS011;18289;51.330;4.946;2024-02-26T07:09:33;4.20;;;3.80;;
31694;SDS011;18289;51.330;4.946;2024-02-26T07:11:59;5.07;;;4.57;;
31694;SDS011;18289;51.330;4.946;2024-02-26T07:14:25;6.18;;;4.78;;
31694;SDS011;18289;51.330;4.946;2024-02-26T07:16:50;5.20;;;4.65;;
31694;SDS011;18289;51.330;4.946;2024-02-26T07:19:16;5.47;;;4.63;;
31694;SDS011;18289;51.330;4.946;2024-02-26T07:21:42;5.43;;;4.93;;
31694;SDS011;18289;51.330;4.946;2024-02-26T07:24:08;6.07;;;5.35;;
31694;SDS011;18289;51.330;4.946;2024-02-26T07:26:34;5.93;;;5.10;;
31694;SDS011;18289;51.330;4.946;2024-02-26T07:28:59;6.95;;;5.55;;
31694;SDS011;18289;51.330;4.946;2024-02-26T07:31:26;6.47;;;5.45;;
31694;SDS011;18289;51.330;4.946;2024-02-26T07:33:52;6.72;;;5.45;;
31694;SDS011;18289;51.330;4.946;2024-02-26T07:36:17;8.25;;;5.60;;
31694;SDS011;18289;51.330;4.946;2024-02-26T07:38:43;8.30;;;6.20;;
31694;SDS011;18289;51.330;4.946;2024-02-26T07:41:09;7.57;;;6.07;;
31694;SDS011;18289;51.330;4.946;2024-02-26T07:43:34;6.97;;;6.00;;
31694;SDS011;18289;51.330;4.946;2024-02-26T07:46:00;8.10;;;5.85;;
31694;SDS011;18289;51.330;4.946;2024-02-26T07:48:26;7.32;;;5.95;;
31694;SDS011;18289;51.330;4.946;2024-02-26T07:50:53;6.65;;;5.90;;
31694;SDS011;18289;51.330;4.946;2024-02-26T07:53:18;7.15;;;5.90;;
31694;SDS011;18289;51.330;4.946;2024-02-26T07:55:44;6.22;;;5.63;;
31694;SDS011;18289;51.330;4.946;2024-02-26T07:58:10;7.85;;;6.53;;
31694;SDS011;18289;51.330;4.946;2024-02-26T08:00:35;7.97;;;6.22;;
31694;SDS011;18289;51.330;4.946;2024-02-26T08:03:01;7.43;;;6.07;;
31694;SDS011;18289;51.330;4.946;2024-02-26T08:05:27;8.35;;;6.05;;
31694;SDS011;18289;51.330;4.946;2024-02-26T08:07:53;7.05;;;6.03;;
31694;SDS011;18289;51.330;4.946;2024-02-26T08:10:19;7.68;;;6.68;;
31694;SDS011;18289;51.330;4.946;2024-02-26T08:12:45;6.80;;;6.07;;
31694;SDS011;18289;51.330;4.946;2024-02-26T08:15:11;6.80;;;5.90;;
31694;SDS011;18289;51.330;4.946;2024-02-26T08:17:37;7.35;;;6.20;;
31694;SDS011;18289;51.330;4.946;2024-02-26T08:20:03;6.85;;;6.07;;
31694;SDS011;18289;51.330;4.946;2024-02-26T08:22:29;7.65;;;6.43;;
31694;SDS011;18289;51.330;4.946;2024-02-26T08:24:55;6.68;;;5.88;;
31694;SDS011;18289;51.330;4.946;2024-02-26T08:27:20;6.32;;;5.72;;
31694;SDS011;18289;51.330;4.946;2024-02-26T08:29:50;6.88;;;5.82;;
31694;SDS011;18289;51.330;4.946;2024-02-26T08:32:16;6.72;;;6.03;;
31694;SDS011;18289;51.330;4.946;2024-02-26T08:34:42;7.28;;;5.53;;
31694;SDS011;18289;51.330;4.946;2024-02-26T08:37:07;6.20;;;5.47;;
31694;SDS011;18289;51.330;4.946;2024-02-26T08:39:33;6.20;;;5.50;;
31694;SDS011;18289;51.330;4.946;2024-02-26T08:41:59;7.05;;;5.22;;
31694;SDS011;18289;51.330;4.946;2024-02-26T08:44:24;7.05;;;5.70;;
31694;SDS011;18289;51.330;4.946;2024-02-26T08:46:51;5.78;;;5.15;;
31694;SDS011;18289;51.330;4.946;2024-02-26T08:49:17;6.53;;;5.40;;
31694;SDS011;18289;51.330;4.946;2024-02-26T08:51:42;7.00;;;5.32;;
31694;SDS011;18289;51.330;4.946;2024-02-26T08:54:11;6.00;;;4.85;;
31694;SDS011;18289;51.330;4.946;2024-02-26T08:56:37;6.53;;;5.15;;
31694;SDS011;18289;51.330;4.946;2024-02-26T08:59:02;5.70;;;5.20;;
31694;SDS011;18289;51.330;4.946;2024-02-26T09:01:29;7.68;;;5.10;;
31694;SDS011;18289;51.330;4.946;2024-02-26T09:03:56;6.47;;;5.60;;
31694;SDS011;18289;51.330;4.946;2024-02-26T09:06:21;5.65;;;4.63;;
31694;SDS011;18289;51.330;4.946;2024-02-26T09:08:47;6.38;;;5.40;;
31694;SDS011;18289;51.330;4.946;2024-02-26T09:11:13;8.23;;;6.80;;
31694;SDS011;18289;51.330;4.946;2024-02-26T09:13:39;5.93;;;5.32;;
31694;SDS011;18289;51.330;4.946;2024-02-26T09:16:05;5.82;;;5.30;;
31694;SDS011;18289;51.330;4.946;2024-02-26T09:18:31;6.47;;;5.63;;
31694;SDS011;18289;51.330;4.946;2024-02-26T09:20:57;6.38;;;5.68;;
31694;SDS011;18289;51.330;4.946;2024-02-26T09:23:22;7.72;;;5.80;;
31694;SDS011;18289;51.330;4.946;2024-02-26T09:25:48;6.88;;;5.38;;
31694;SDS011;18289;51.330;4.946;2024-02-26T09:28:14;7.07;;;5.75;;
31694;SDS011;18289;51.330;4.946;2024-02-26T09:30:43;6.95;;;5.20;;
31694;SDS011;18289;51.330;4.946;2024-02-26T09:33:09;7.80;;;5.38;;
31694;SDS011;18289;51.330;4.946;2024-02-26T09:35:35;6.70;;;5.70;;
31694;SDS011;18289;51.330;4.946;2024-02-26T09:38:01;10.27;;;7.10;;
31694;SDS011;18289;51.330;4.946;2024-02-26T09:40:26;8.65;;;6.25;;
31694;SDS011;18289;51.330;4.946;2024-02-26T09:42:53;9.13;;;6.15;;
31694;SDS011;18289;51.330;4.946;2024-02-26T09:45:25;8.15;;;5.88;;
31694;SDS011;18289;51.330;4.946;2024-02-26T09:47:52;7.00;;;6.00;;
31694;SDS011;18289;51.330;4.946;2024-02-26T09:50:20;6.95;;;5.82;;
31694;SDS011;18289;51.330;4.946;2024-02-26T09:52:47;8.35;;;6.72;;
31694;SDS011;18289;51.330;4.946;2024-02-26T09:55:14;7.43;;;6.40;;
31694;SDS011;18289;51.330;4.946;2024-02-26T09:57:45;9.27;;;6.40;;
31694;SDS011;18289;51.330;4.946;2024-02-26T10:00:16;8.10;;;6.57;;
31694;SDS011;18289;51.330;4.946;2024-02-26T10:02:47;8.82;;;6.03;;
31694;SDS011;18289;51.330;4.946;2024-02-26T10:05:14;7.32;;;6.40;;
31694;SDS011;18289;51.330;4.946;2024-02-26T10:07:44;10.95;;;6.57;;
31694;SDS011;18289;51.330;4.946;2024-02-26T10:10:11;6.95;;;6.20;;
31694;SDS011;18289;51.330;4.946;2024-02-26T10:12:36;7.43;;;6.65;;
31694;SDS011;18289;51.330;4.946;2024-02-26T10:15:02;8.23;;;6.70;;
31694;SDS011;18289;51.330;4.946;2024-02-26T10:17:28;8.45;;;6.60;;
31694;SDS011;18289;51.330;4.946;2024-02-26T10:19:54;9.15;;;6.70;;
31694;SDS011;18289;51.330;4.946;2024-02-26T10:22:35;7.63;;;6.57;;
31694;SDS011;18289;51.330;4.946;2024-02-26T10:25:00;7.55;;;6.70;;
31694;SDS011;18289;51.330;4.946;2024-02-26T10:27:27;8.02;;;7.20;;
31694;SDS011;18289;51.330;4.946;2024-02-26T10:29:53;7.40;;;6.70;;
31694;SDS011;18289;51.330;4.946;2024-02-26T10:32:22;8.18;;;7.10;;
31694;SDS011;18289;51.330;4.946;2024-02-26T10:34:48;8.63;;;7.68;;
31694;SDS011;18289;51.330;4.946;2024-02-26T10:37:13;7.97;;;6.90;;
31694;SDS011;18289;51.330;4.946;2024-02-26T10:39:39;9.05;;;7.20;;
31694;SDS011;18289;51.330;4.946;2024-02-26T10:42:12;9.02;;;7.10;;
31694;SDS011;18289;51.330;4.946;2024-02-26T10:44:39;9.75;;;6.88;;
31694;SDS011;18289;51.330;4.946;2024-02-26T10:47:07;8.90;;;7.03;;
31694;SDS011;18289;51.330;4.946;2024-02-26T10:49:34;9.15;;;6.13;;
31694;SDS011;18289;51.330;4.946;2024-02-26T10:52:00;8.23;;;6.63;;
31694;SDS011;18289;51.330;4.946;2024-02-26T10:54:29;7.88;;;6.53;;
31694;SDS011;18289;51.330;4.946;2024-02-26T10:56:57;7.78;;;7.00;;
31694;SDS011;18289;51.330;4.946;2024-02-26T10:59:24;7.70;;;6.85;;
31694;SDS011;18289;51.330;4.946;2024-02-26T11:01:51;8.48;;;6.55;;
31694;SDS011;18289;51.330;4.946;2024-02-26T11:04:17;7.63;;;6.63;;
31694;SDS011;18289;51.330;4.946;2024-02-26T11:06:44;8.38;;;6.95;;
31694;SDS011;18289;51.330;4.946;2024-02-26T11:09:12;8.50;;;6.75;;
31694;SDS011;18289;51.330;4.946;2024-02-26T11:11:39;7.20;;;6.38;;
31694;SDS011;18289;51.330;4.946;2024-02-26T11:14:06;7.45;;;6.63;;
31694;SDS011;18289;51.330;4.946;2024-02-26T11:16:34;8.85;;;7.55;;
31694;SDS011;18289;51.330;4.946;2024-02-26T11:19:01;8.52;;;7.63;;
31694;SDS011;18289;51.330;4.946;2024-02-26T11:21:27;9.90;;;7.80;;
31694;SDS011;18289;51.330;4.946;2024-02-26T11:24:03;8.98;;;7.18;;
31694;SDS011;18289;51.330;4.946;2024-02-26T11:26:31;11.68;;;8.18;;
31694;SDS011;18289;51.330;4.946;2024-02-26T11:31:27;11.10;;;8.43;;
31694;SDS011;18289;51.330;4.946;2024-02-26T11:33:54;11.10;;;8.50;;
31694;SDS011;18289;51.330;4.946;2024-02-26T11:36:21;10.57;;;8.23;;
31694;SDS011;18289;51.330;4.946;2024-02-26T11:38:49;12.25;;;9.68;;
31694;SDS011;18289;51.330;4.946;2024-02-26T11:41:17;10.50;;;8.88;;
31694;SDS011;18289;51.330;4.946;2024-02-26T11:43:53;11.82;;;9.52;;
31694;SDS011;18289;51.330;4.946;2024-02-26T11:49:00;12.10;;;9.02;;
31694;SDS011;18289;51.330;4.946;2024-02-26T11:51:27;11.35;;;8.70;;
31694;SDS011;18289;51.330;4.946;2024-02-26T11:53:57;10.68;;;8.63;;
31694;SDS011;18289;51.330;4.946;2024-02-26T11:56:24;12.60;;;8.73;;
31694;SDS011;18289;51.330;4.946;2024-02-26T11:59:00;11.02;;;8.63;;
31694;SDS011;18289;51.330;4.946;2024-02-26T12:01:50;11.90;;;8.35;;
31694;SDS011;18289;51.330;4.946;2024-02-26T12:04:24;11.57;;;9.23;;
31694;SDS011;18289;51.330;4.946;2024-02-26T12:06:59;14.43;;;8.93;;
31694;SDS011;18289;51.330;4.946;2024-02-26T12:17:07;11.88;;;8.15;;
31694;SDS011;18289;51.330;4.946;2024-02-26T12:19:44;11.60;;;8.80;;
31694;SDS011;18289;51.330;4.946;2024-02-26T12:22:12;12.32;;;8.90;;
31694;SDS011;18289;51.330;4.946;2024-02-26T12:24:39;12.85;;;8.85;;
31694;SDS011;18289;51.330;4.946;2024-02-26T12:27:04;10.95;;;8.88;;
31694;SDS011;18289;51.330;4.946;2024-02-26T12:29:31;11.43;;;8.50;;
31694;SDS011;18289;51.330;4.946;2024-02-26T12:31:57;15.68;;;9.30;;
31694;SDS011;18289;51.330;4.946;2024-02-26T12:34:23;12.93;;;9.05;;
31694;SDS011;18289;51.330;4.946;2024-02-26T12:36:49;11.30;;;8.52;;
31694;SDS011;18289;51.330;4.946;2024-02-26T12:39:15;12.85;;;8.27;;
31694;SDS011;18289;51.330;4.946;2024-02-26T12:41:41;12.80;;;8.95;;
31694;SDS011;18289;51.330;4.946;2024-02-26T12:44:14;12.80;;;8.73;;
31694;SDS011;18289;51.330;4.946;2024-02-26T12:46:40;12.88;;;9.43;;
31694;SDS011;18289;51.330;4.946;2024-02-26T12:49:06;13.63;;;9.82;;
31694;SDS011;18289;51.330;4.946;2024-02-26T12:51:33;14.05;;;9.30;;
31694;SDS011;18289;51.330;4.946;2024-02-26T12:53:59;13.90;;;9.13;;
31694;SDS011;18289;51.330;4.946;2024-02-26T12:56:25;12.70;;;8.55;;
31694;SDS011;18289;51.330;4.946;2024-02-26T12:58:52;10.57;;;8.00;;
31694;SDS011;18289;51.330;4.946;2024-02-26T13:01:20;12.23;;;8.70;;
31694;SDS011;18289;51.330;4.946;2024-02-26T13:06:14;12.65;;;8.07;;
31694;SDS011;18289;51.330;4.946;2024-02-26T13:08:40;11.45;;;7.68;;
31694;SDS011;18289;51.330;4.946;2024-02-26T13:11:05;11.13;;;8.27;;
31694;SDS011;18289;51.330;4.946;2024-02-26T13:13:32;11.15;;;8.23;;
31694;SDS011;18289;51.330;4.946;2024-02-26T13:16:01;12.93;;;8.38;;
31694;SDS011;18289;51.330;4.946;2024-02-26T13:18:33;9.43;;;7.20;;
31694;SDS011;18289;51.330;4.946;2024-02-26T13:21:20;13.20;;;8.27;;
31694;SDS011;18289;51.330;4.946;2024-02-26T13:23:51;10.68;;;7.60;;
31694;SDS011;18289;51.330;4.946;2024-02-26T13:26:21;11.18;;;7.75;;
31694;SDS011;18289;51.330;4.946;2024-02-26T13:28:58;11.25;;;7.47;;
31694;SDS011;18289;51.330;4.946;2024-02-26T13:31:25;11.23;;;7.85;;
31694;SDS011;18289;51.330;4.946;2024-02-26T13:33:51;12.38;;;8.00;;
31694;SDS011;18289;51.330;4.946;2024-02-26T13:36:20;11.45;;;8.25;;
31694;SDS011;18289;51.330;4.946;2024-02-26T13:38:53;12.20;;;7.85;;
31694;SDS011;18289;51.330;4.946;2024-02-26T13:41:19;10.65;;;8.25;;
31694;SDS011;18289;51.330;4.946;2024-02-26T13:43:46;11.35;;;7.75;;
31694;SDS011;18289;51.330;4.946;2024-02-26T13:46:12;10.73;;;7.57;;
31694;SDS011;18289;51.330;4.946;2024-02-26T13:48:40;10.88;;;8.57;;
31694;SDS011;18289;51.330;4.946;2024-02-26T13:51:06;11.20;;;7.85;;
31694;SDS011;18289;51.330;4.946;2024-02-26T13:53:32;10.52;;;8.38;;
31694;SDS011;18289;51.330;4.946;2024-02-26T13:55:57;9.82;;;7.60;;
31694;SDS011;18289;51.330;4.946;2024-02-26T13:58:26;10.10;;;7.60;;
31694;SDS011;18289;51.330;4.946;2024-02-26T14:00:55;10.13;;;7.43;;
31694;SDS011;18289;51.330;4.946;2024-02-26T14:03:21;11.25;;;8.55;;
31694;SDS011;18289;51.330;4.946;2024-02-26T14:05:47;9.50;;;7.70;;
31694;SDS011;18289;51.330;4.946;2024-02-26T14:08:13;11.80;;;8.27;;
31694;SDS011;18289;51.330;4.946;2024-02-26T14:10:39;11.32;;;7.93;;
31694;SDS011;18289;51.330;4.946;2024-02-26T14:13:05;10.25;;;7.70;;
31694;SDS011;18289;51.330;4.946;2024-02-26T14:15:31;11.38;;;7.68;;
31694;SDS011;18289;51.330;4.946;2024-02-26T14:17:57;9.02;;;6.85;;
31694;SDS011;18289;51.330;4.946;2024-02-26T14:20:23;10.15;;;7.03;;
31694;SDS011;18289;51.330;4.946;2024-02-26T14:22:50;10.38;;;7.68;;
31694;SDS011;18289;51.330;4.946;2024-02-26T14:25:18;10.55;;;7.40;;
31694;SDS011;18289;51.330;4.946;2024-02-26T14:27:45;9.27;;;6.97;;
31694;SDS011;18289;51.330;4.946;2024-02-26T14:30:12;10.63;;;7.75;;
31694;SDS011;18289;51.330;4.946;2024-02-26T14:32:38;9.30;;;6.88;;
31694;SDS011;18289;51.330;4.946;2024-02-26T14:35:07;12.10;;;7.20;;
31694;SDS011;18289;51.330;4.946;2024-02-26T14:37:34;10.75;;;7.50;;
31694;SDS011;18289;51.330;4.946;2024-02-26T14:40:00;8.88;;;7.03;;
31694;SDS011;18289;51.330;4.946;2024-02-26T14:42:27;9.10;;;6.83;;
31694;SDS011;18289;51.330;4.946;2024-02-26T14:44:54;10.75;;;7.28;;
31694;SDS011;18289;51.330;4.946;2024-02-26T14:47:19;9.55;;;6.95;;
31694;SDS011;18289;51.330;4.946;2024-02-26T14:49:45;8.75;;;6.47;;
31694;SDS011;18289;51.330;4.946;2024-02-26T14:52:13;8.63;;;6.75;;
31694;SDS011;18289;51.330;4.946;2024-02-26T14:54:41;10.87;;;7.60;;
31694;SDS011;18289;51.330;4.946;2024-02-26T14:57:08;9.05;;;7.13;;
31694;SDS011;18289;51.330;4.946;2024-02-26T14:59:34;12.20;;;7.65;;
31694;SDS011;18289;51.330;4.946;2024-02-26T15:02:01;9.10;;;7.00;;
31694;SDS011;18289;51.330;4.946;2024-02-26T15:04:27;9.60;;;6.47;;
31694;SDS011;18289;51.330;4.946;2024-02-26T15:06:53;10.43;;;6.90;;
31694;SDS011;18289;51.330;4.946;2024-02-26T15:09:19;11.38;;;7.55;;